sensor_id;sensor_type;location;lat;lon;timestamp;temperature;humidity
21033;DHT22;10675;47.976;7.824;2023-04-29T00:01:05;14.60;99.90
21033;DHT22;10675;47.976;7.824;2023-04-29T00:03:30;14.60;99.90
21033;DHT22;10675;47.976;7.824;2023-04-29T00:05:59;14.60;99.90
21033;DHT22;10675;47.976;7.824;2023-04-29T00:08:25;14.60;99.90
21033;DHT22;10675;47.976;7.824;2023-04-29T00:10:50;14.60;99.90
21033;DHT22;10675;47.976;7.824;2023-04-29T00:13:16;14.50;99.90
21033;DHT22;10675;47.976;7.824;2023-04-29T00:15:42;14.60;99.90
21033;DHT22;10675;47.976;7.824;2023-04-29T00:18:08;14.50;99.90
21033;DHT22;10675;47.976;7.824;2023-04-29T00:20:34;14.50;99.90
21033;DHT22;10675;47.976;7.824;2023-04-29T00:23:00;14.50;99.90
21033;DHT22;10675;47.976;7.824;2023-04-29T00:25:26;14.50;99.90
21033;DHT22;10675;47.976;7.824;2023-04-29T00:27:51;14.40;99.90
21033;DHT22;10675;47.976;7.824;2023-04-29T00:30:17;14.40;99.90
21033;DHT22;10675;47.976;7.824;2023-04-29T00:32:43;14.40;99.90
21033;DHT22;10675;47.976;7.824;2023-04-29T00:35:09;14.40;99.90
21033;DHT22;10675;47.976;7.824;2023-04-29T00:37:35;14.40;99.90
21033;DHT22;10675;47.976;7.824;2023-04-29T00:40:01;14.40;99.90
21033;DHT22;10675;47.976;7.824;2023-04-29T00:42:27;14.40;99.90
21033;DHT22;10675;47.976;7.824;2023-04-29T00:44:53;14.40;99.90
21033;DHT22;10675;47.976;7.824;2023-04-29T00:47:18;14.40;99.90
21033;DHT22;10675;47.976;7.824;2023-04-29T00:49:44;14.30;99.90
21033;DHT22;10675;47.976;7.824;2023-04-29T00:52:13;14.40;99.90
21033;DHT22;10675;47.976;7.824;2023-04-29T00:54:40;14.30;99.90
21033;DHT22;10675;47.976;7.824;2023-04-29T00:57:05;14.30;99.90
21033;DHT22;10675;47.976;7.824;2023-04-29T00:59:32;14.40;99.90
21033;DHT22;10675;47.976;7.824;2023-04-29T01:01:59;14.40;99.90
21033;DHT22;10675;47.976;7.824;2023-04-29T01:04:25;14.30;99.90
21033;DHT22;10675;47.976;7.824;2023-04-29T01:07:03;14.30;99.90
21033;DHT22;10675;47.976;7.824;2023-04-29T01:09:56;14.30;99.90
21033;DHT22;10675;47.976;7.824;2023-04-29T01:17:30;14.30;99.90
21033;DHT22;10675;47.976;7.824;2023-04-29T01:19:59;14.30;99.90
21033;DHT22;10675;47.976;7.824;2023-04-29T01:22:26;14.30;99.90
21033;DHT22;10675;47.976;7.824;2023-04-29T01:24:51;14.40;99.90
21033;DHT22;10675;47.976;7.824;2023-04-29T01:27:33;14.50;99.90
21033;DHT22;10675;47.976;7.824;2023-04-29T01:30:37;14.40;99.90
21033;DHT22;10675;47.976;7.824;2023-04-29T01:36:29;14.40;99.90
21033;DHT22;10675;47.976;7.824;2023-04-29T01:39:02;14.40;99.90
21033;DHT22;10675;47.976;7.824;2023-04-29T01:41:44;14.40;99.90
21033;DHT22;10675;47.976;7.824;2023-04-29T01:44:19;14.40;99.90
21033;DHT22;10675;47.976;7.824;2023-04-29T01:46:52;14.40;99.90
21033;DHT22;10675;47.976;7.824;2023-04-29T01:49:26;14.40;99.90
21033;DHT22;10675;47.976;7.824;2023-04-29T01:51:51;14.40;99.90
21033;DHT22;10675;47.976;7.824;2023-04-29T01:54:17;14.40;99.90
21033;DHT22;10675;47.976;7.824;2023-04-29T01:56:43;14.30;99.90
21033;DHT22;10675;47.976;7.824;2023-04-29T01:59:08;14.30;99.90
21033;DHT22;10675;47.976;7.824;2023-04-29T02:01:35;14.20;99.90
21033;DHT22;10675;47.976;7.824;2023-04-29T02:04:00;14.20;99.90
21033;DHT22;10675;47.976;7.824;2023-04-29T02:06:26;14.20;99.90
21033;DHT22;10675;47.976;7.824;2023-04-29T02:08:52;14.20;99.90
21033;DHT22;10675;47.976;7.824;2023-04-29T02:11:18;14.20;99.90
21033;DHT22;10675;47.976;7.824;2023-04-29T02:13:43;14.10;99.90
21033;DHT22;10675;47.976;7.824;2023-04-29T02:16:10;14.10;99.90
21033;DHT22;10675;47.976;7.824;2023-04-29T02:18:36;14.10;99.90
21033;DHT22;10675;47.976;7.824;2023-04-29T02:21:02;14.00;99.90
21033;DHT22;10675;47.976;7.824;2023-04-29T02:23:27;14.00;99.90
21033;DHT22;10675;47.976;7.824;2023-04-29T02:25:53;14.00;99.90
21033;DHT22;10675;47.976;7.824;2023-04-29T02:28:19;14.00;99.90
21033;DHT22;10675;47.976;7.824;2023-04-29T02:30:45;13.90;99.90
21033;DHT22;10675;47.976;7.824;2023-04-29T02:33:10;13.90;99.90
21033;DHT22;10675;47.976;7.824;2023-04-29T02:35:36;13.90;99.90
21033;DHT22;10675;47.976;7.824;2023-04-29T02:38:02;13.90;99.90
21033;DHT22;10675;47.976;7.824;2023-04-29T02:40:27;13.80;99.90
21033;DHT22;10675;47.976;7.824;2023-04-29T02:42:53;13.70;99.90
21033;DHT22;10675;47.976;7.824;2023-04-29T02:45:19;13.60;99.90
21033;DHT22;10675;47.976;7.824;2023-04-29T02:47:44;13.60;99.90
21033;DHT22;10675;47.976;7.824;2023-04-29T02:50:10;13.60;99.90
21033;DHT22;10675;47.976;7.824;2023-04-29T02:52:35;13.50;99.90
21033;DHT22;10675;47.976;7.824;2023-04-29T02:55:01;13.50;99.90
21033;DHT22;10675;47.976;7.824;2023-04-29T02:57:27;13.50;99.90
21033;DHT22;10675;47.976;7.824;2023-04-29T02:59:54;13.40;99.90
21033;DHT22;10675;47.976;7.824;2023-04-29T03:02:19;13.50;99.90
21033;DHT22;10675;47.976;7.824;2023-04-29T03:04:45;13.50;99.90
21033;DHT22;10675;47.976;7.824;2023-04-29T03:07:11;13.50;99.90
21033;DHT22;10675;47.976;7.824;2023-04-29T03:09:36;13.50;99.90
21033;DHT22;10675;47.976;7.824;2023-04-29T03:12:02;13.50;99.90
21033;DHT22;10675;47.976;7.824;2023-04-29T03:14:28;13.50;99.90
21033;DHT22;10675;47.976;7.824;2023-04-29T03:16:53;13.50;99.90
21033;DHT22;10675;47.976;7.824;2023-04-29T03:19:20;13.40;99.90
21033;DHT22;10675;47.976;7.824;2023-04-29T03:21:46;13.40;99.90
21033;DHT22;10675;47.976;7.824;2023-04-29T03:24:11;13.40;99.90
21033;DHT22;10675;47.976;7.824;2023-04-29T03:26:37;13.40;99.90
21033;DHT22;10675;47.976;7.824;2023-04-29T03:29:03;13.30;99.90
21033;DHT22;10675;47.976;7.824;2023-04-29T03:31:28;13.30;99.90
21033;DHT22;10675;47.976;7.824;2023-04-29T03:33:54;13.30;99.90
21033;DHT22;10675;47.976;7.824;2023-04-29T03:36:19;13.30;99.90
21033;DHT22;10675;47.976;7.824;2023-04-29T03:38:45;13.00;99.90
21033;DHT22;10675;47.976;7.824;2023-04-29T03:41:11;13.10;99.90
21033;DHT22;10675;47.976;7.824;2023-04-29T03:43:36;13.20;99.90
21033;DHT22;10675;47.976;7.824;2023-04-29T03:46:02;13.00;99.90
21033;DHT22;10675;47.976;7.824;2023-04-29T03:48:27;13.10;99.90
21033;DHT22;10675;47.976;7.824;2023-04-29T03:50:53;13.00;99.90
21033;DHT22;10675;47.976;7.824;2023-04-29T03:53:19;13.00;99.90
21033;DHT22;10675;47.976;7.824;2023-04-29T03:55:46;13.00;99.90
21033;DHT22;10675;47.976;7.824;2023-04-29T03:58:12;12.90;99.90
21033;DHT22;10675;47.976;7.824;2023-04-29T04:00:38;12.90;99.90
21033;DHT22;10675;47.976;7.824;2023-04-29T04:03:04;12.90;99.90
21033;DHT22;10675;47.976;7.824;2023-04-29T04:05:30;12.90;99.90
21033;DHT22;10675;47.976;7.824;2023-04-29T04:07:55;12.90;99.90
21033;DHT22;10675;47.976;7.824;2023-04-29T04:10:21;12.90;99.90
21033;DHT22;10675;47.976;7.824;2023-04-29T04:12:46;12.90;99.90
21033;DHT22;10675;47.976;7.824;2023-04-29T04:15:12;12.90;99.90
21033;DHT22;10675;47.976;7.824;2023-04-29T04:17:38;12.90;99.90
21033;DHT22;10675;47.976;7.824;2023-04-29T04:20:04;12.90;99.90
21033;DHT22;10675;47.976;7.824;2023-04-29T04:22:29;12.90;99.90
21033;DHT22;10675;47.976;7.824;2023-04-29T04:24:55;12.90;99.90
21033;DHT22;10675;47.976;7.824;2023-04-29T04:27:21;12.90;99.90
21033;DHT22;10675;47.976;7.824;2023-04-29T04:29:46;12.80;99.90
21033;DHT22;10675;47.976;7.824;2023-04-29T04:32:12;12.80;99.90
21033;DHT22;10675;47.976;7.824;2023-04-29T04:34:38;12.80;99.90
21033;DHT22;10675;47.976;7.824;2023-04-29T04:37:06;12.80;99.90
21033;DHT22;10675;47.976;7.824;2023-04-29T04:39:31;12.90;99.90
21033;DHT22;10675;47.976;7.824;2023-04-29T04:41:57;12.90;99.90
21033;DHT22;10675;47.976;7.824;2023-04-29T04:44:23;12.80;99.90
21033;DHT22;10675;47.976;7.824;2023-04-29T04:46:50;12.80;99.90
21033;DHT22;10675;47.976;7.824;2023-04-29T04:49:16;12.80;99.90
21033;DHT22;10675;47.976;7.824;2023-04-29T04:51:44;12.80;99.90
21033;DHT22;10675;47.976;7.824;2023-04-29T04:54:10;12.70;99.90
21033;DHT22;10675;47.976;7.824;2023-04-29T04:56:36;12.60;99.90
21033;DHT22;10675;47.976;7.824;2023-04-29T04:59:02;12.70;99.90
21033;DHT22;10675;47.976;7.824;2023-04-29T05:01:28;12.60;99.90
21033;DHT22;10675;47.976;7.824;2023-04-29T05:03:53;12.70;99.90
21033;DHT22;10675;47.976;7.824;2023-04-29T05:06:19;12.70;99.90
21033;DHT22;10675;47.976;7.824;2023-04-29T05:08:45;12.70;99.90
21033;DHT22;10675;47.976;7.824;2023-04-29T05:11:18;12.70;99.90
21033;DHT22;10675;47.976;7.824;2023-04-29T05:13:44;12.80;99.90
21033;DHT22;10675;47.976;7.824;2023-04-29T05:16:10;13.00;99.90
21033;DHT22;10675;47.976;7.824;2023-04-29T05:18:36;12.90;99.90
21033;DHT22;10675;47.976;7.824;2023-04-29T05:21:01;12.90;99.90
21033;DHT22;10675;47.976;7.824;2023-04-29T05:23:27;13.00;99.90
21033;DHT22;10675;47.976;7.824;2023-04-29T05:25:52;12.90;99.90
21033;DHT22;10675;47.976;7.824;2023-04-29T05:28:18;13.00;99.90
21033;DHT22;10675;47.976;7.824;2023-04-29T05:30:44;13.00;99.90
21033;DHT22;10675;47.976;7.824;2023-04-29T05:33:10;13.10;99.90
21033;DHT22;10675;47.976;7.824;2023-04-29T05:35:36;13.20;99.90
21033;DHT22;10675;47.976;7.824;2023-04-29T05:38:02;13.20;99.90
21033;DHT22;10675;47.976;7.824;2023-04-29T05:40:27;13.30;99.90
21033;DHT22;10675;47.976;7.824;2023-04-29T05:42:53;13.40;99.90
21033;DHT22;10675;47.976;7.824;2023-04-29T05:45:19;13.50;99.90
21033;DHT22;10675;47.976;7.824;2023-04-29T05:47:45;13.50;99.90
21033;DHT22;10675;47.976;7.824;2023-04-29T05:50:10;13.60;99.90
21033;DHT22;10675;47.976;7.824;2023-04-29T05:52:37;13.70;99.90
21033;DHT22;10675;47.976;7.824;2023-04-29T05:55:02;13.70;99.90
21033;DHT22;10675;47.976;7.824;2023-04-29T05:57:28;13.70;99.90
21033;DHT22;10675;47.976;7.824;2023-04-29T05:59:53;13.70;99.90
21033;DHT22;10675;47.976;7.824;2023-04-29T06:02:20;13.70;99.90
21033;DHT22;10675;47.976;7.824;2023-04-29T06:04:45;13.80;99.90
21033;DHT22;10675;47.976;7.824;2023-04-29T06:07:12;13.80;99.90
21033;DHT22;10675;47.976;7.824;2023-04-29T06:09:38;13.80;99.90
21033;DHT22;10675;47.976;7.824;2023-04-29T06:12:04;13.90;99.90
21033;DHT22;10675;47.976;7.824;2023-04-29T06:14:30;14.00;99.90
21033;DHT22;10675;47.976;7.824;2023-04-29T06:16:55;14.10;99.90
21033;DHT22;10675;47.976;7.824;2023-04-29T06:19:21;14.20;99.90
21033;DHT22;10675;47.976;7.824;2023-04-29T06:21:47;14.20;99.90
21033;DHT22;10675;47.976;7.824;2023-04-29T06:24:12;14.30;99.90
21033;DHT22;10675;47.976;7.824;2023-04-29T06:26:37;14.40;99.90
21033;DHT22;10675;47.976;7.824;2023-04-29T06:29:03;14.40;99.90
21033;DHT22;10675;47.976;7.824;2023-04-29T06:31:29;14.30;99.90
21033;DHT22;10675;47.976;7.824;2023-04-29T06:33:54;14.50;99.90
21033;DHT22;10675;47.976;7.824;2023-04-29T06:36:20;14.80;99.90
21033;DHT22;10675;47.976;7.824;2023-04-29T06:38:45;14.90;99.90
21033;DHT22;10675;47.976;7.824;2023-04-29T06:41:11;15.20;99.90
21033;DHT22;10675;47.976;7.824;2023-04-29T06:43:37;15.40;99.90
21033;DHT22;10675;47.976;7.824;2023-04-29T06:46:03;15.70;99.90
21033;DHT22;10675;47.976;7.824;2023-04-29T06:48:28;15.60;99.90
21033;DHT22;10675;47.976;7.824;2023-04-29T06:50:55;15.30;99.90
21033;DHT22;10675;47.976;7.824;2023-04-29T06:53:22;15.70;99.90
21033;DHT22;10675;47.976;7.824;2023-04-29T06:55:48;15.90;99.90
21033;DHT22;10675;47.976;7.824;2023-04-29T06:58:14;15.80;99.90
21033;DHT22;10675;47.976;7.824;2023-04-29T07:00:43;16.00;99.90
21033;DHT22;10675;47.976;7.824;2023-04-29T07:03:09;15.70;99.90
21033;DHT22;10675;47.976;7.824;2023-04-29T07:05:36;15.70;99.90
21033;DHT22;10675;47.976;7.824;2023-04-29T07:08:04;15.70;99.90
21033;DHT22;10675;47.976;7.824;2023-04-29T07:10:29;15.40;99.90
21033;DHT22;10675;47.976;7.824;2023-04-29T07:12:55;15.30;99.90
21033;DHT22;10675;47.976;7.824;2023-04-29T07:15:21;15.50;99.90
21033;DHT22;10675;47.976;7.824;2023-04-29T07:17:46;15.50;99.90
21033;DHT22;10675;47.976;7.824;2023-04-29T07:20:12;15.30;99.90
21033;DHT22;10675;47.976;7.824;2023-04-29T07:22:38;15.50;99.90
21033;DHT22;10675;47.976;7.824;2023-04-29T07:25:04;15.50;99.90
21033;DHT22;10675;47.976;7.824;2023-04-29T07:27:32;15.70;99.90
21033;DHT22;10675;47.976;7.824;2023-04-29T07:29:59;15.60;99.90
21033;DHT22;10675;47.976;7.824;2023-04-29T07:32:25;15.60;99.90
21033;DHT22;10675;47.976;7.824;2023-04-29T07:34:51;15.80;99.90
21033;DHT22;10675;47.976;7.824;2023-04-29T07:37:17;15.90;99.90
21033;DHT22;10675;47.976;7.824;2023-04-29T07:39:42;15.90;99.90
21033;DHT22;10675;47.976;7.824;2023-04-29T07:42:08;15.90;99.90
21033;DHT22;10675;47.976;7.824;2023-04-29T07:44:33;16.10;99.90
21033;DHT22;10675;47.976;7.824;2023-04-29T07:46:59;16.20;99.90
21033;DHT22;10675;47.976;7.824;2023-04-29T07:49:24;16.20;99.90
21033;DHT22;10675;47.976;7.824;2023-04-29T07:51:50;16.30;99.90
21033;DHT22;10675;47.976;7.824;2023-04-29T07:54:16;16.40;99.90
21033;DHT22;10675;47.976;7.824;2023-04-29T07:56:44;16.60;99.90
21033;DHT22;10675;47.976;7.824;2023-04-29T07:59:10;16.80;99.90
21033;DHT22;10675;47.976;7.824;2023-04-29T08:01:35;17.20;99.90
21033;DHT22;10675;47.976;7.824;2023-04-29T08:04:01;17.10;99.90
21033;DHT22;10675;47.976;7.824;2023-04-29T08:06:26;17.00;99.90
21033;DHT22;10675;47.976;7.824;2023-04-29T08:08:53;16.90;99.90
21033;DHT22;10675;47.976;7.824;2023-04-29T08:11:20;16.70;99.90
21033;DHT22;10675;47.976;7.824;2023-04-29T08:13:49;16.40;99.90
21033;DHT22;10675;47.976;7.824;2023-04-29T08:16:14;16.70;99.90
21033;DHT22;10675;47.976;7.824;2023-04-29T08:18:40;16.70;99.90
21033;DHT22;10675;47.976;7.824;2023-04-29T08:21:06;16.60;99.90
21033;DHT22;10675;47.976;7.824;2023-04-29T08:23:31;16.10;99.90
21033;DHT22;10675;47.976;7.824;2023-04-29T08:25:57;16.60;99.90
21033;DHT22;10675;47.976;7.824;2023-04-29T08:28:23;17.20;99.90
21033;DHT22;10675;47.976;7.824;2023-04-29T08:30:49;17.20;99.90
21033;DHT22;10675;47.976;7.824;2023-04-29T08:33:15;16.90;99.90
21033;DHT22;10675;47.976;7.824;2023-04-29T08:35:41;17.10;99.90
21033;DHT22;10675;47.976;7.824;2023-04-29T08:38:07;17.00;99.90
21033;DHT22;10675;47.976;7.824;2023-04-29T08:40:42;16.90;99.90
21033;DHT22;10675;47.976;7.824;2023-04-29T08:43:09;16.80;99.90
21033;DHT22;10675;47.976;7.824;2023-04-29T08:45:35;17.00;99.90
21033;DHT22;10675;47.976;7.824;2023-04-29T08:48:06;17.30;99.90
21033;DHT22;10675;47.976;7.824;2023-04-29T08:50:36;17.60;99.90
21033;DHT22;10675;47.976;7.824;2023-04-29T08:53:04;17.40;99.90
21033;DHT22;10675;47.976;7.824;2023-04-29T08:55:40;17.50;99.90
21033;DHT22;10675;47.976;7.824;2023-04-29T08:58:07;17.50;99.90
21033;DHT22;10675;47.976;7.824;2023-04-29T09:00:34;17.40;99.90
21033;DHT22;10675;47.976;7.824;2023-04-29T09:03:11;17.10;99.90
21033;DHT22;10675;47.976;7.824;2023-04-29T09:05:40;17.10;99.90
21033;DHT22;10675;47.976;7.824;2023-04-29T09:08:07;17.00;99.90
21033;DHT22;10675;47.976;7.824;2023-04-29T09:10:35;17.10;99.90
21033;DHT22;10675;47.976;7.824;2023-04-29T09:13:01;16.90;99.90
21033;DHT22;10675;47.976;7.824;2023-04-29T09:15:27;17.00;99.90
21033;DHT22;10675;47.976;7.824;2023-04-29T09:17:53;17.10;99.90
21033;DHT22;10675;47.976;7.824;2023-04-29T09:22:50;17.40;99.90
21033;DHT22;10675;47.976;7.824;2023-04-29T09:25:16;17.70;99.90
21033;DHT22;10675;47.976;7.824;2023-04-29T09:27:42;17.50;99.90
21033;DHT22;10675;47.976;7.824;2023-04-29T09:30:08;17.50;99.90
21033;DHT22;10675;47.976;7.824;2023-04-29T09:32:35;17.30;99.90
21033;DHT22;10675;47.976;7.824;2023-04-29T09:35:23;17.20;99.90
21033;DHT22;10675;47.976;7.824;2023-04-29T09:37:50;17.40;99.90
21033;DHT22;10675;47.976;7.824;2023-04-29T09:40:29;17.50;99.90
21033;DHT22;10675;47.976;7.824;2023-04-29T09:42:55;17.60;99.90
21033;DHT22;10675;47.976;7.824;2023-04-29T09:45:34;17.50;99.90
21033;DHT22;10675;47.976;7.824;2023-04-29T09:48:01;17.70;99.90
21033;DHT22;10675;47.976;7.824;2023-04-29T09:50:28;17.80;99.90
21033;DHT22;10675;47.976;7.824;2023-04-29T09:52:53;18.10;99.90
21033;DHT22;10675;47.976;7.824;2023-04-29T09:55:19;17.50;99.90
21033;DHT22;10675;47.976;7.824;2023-04-29T09:57:45;17.10;99.90
21033;DHT22;10675;47.976;7.824;2023-04-29T10:00:12;17.30;99.90
21033;DHT22;10675;47.976;7.824;2023-04-29T10:02:41;17.40;99.90
21033;DHT22;10675;47.976;7.824;2023-04-29T10:05:07;17.60;99.90
21033;DHT22;10675;47.976;7.824;2023-04-29T10:07:34;17.90;99.70
21033;DHT22;10675;47.976;7.824;2023-04-29T10:10:01;17.80;97.80
21033;DHT22;10675;47.976;7.824;2023-04-29T10:12:30;17.70;98.90
21033;DHT22;10675;47.976;7.824;2023-04-29T10:18:13;17.50;98.00
21033;DHT22;10675;47.976;7.824;2023-04-29T10:20:45;17.70;97.90
21033;DHT22;10675;47.976;7.824;2023-04-29T10:23:12;17.90;97.30
21033;DHT22;10675;47.976;7.824;2023-04-29T10:25:39;17.50;97.90
21033;DHT22;10675;47.976;7.824;2023-04-29T10:28:09;17.90;98.30
21033;DHT22;10675;47.976;7.824;2023-04-29T10:30:39;18.40;96.70
21033;DHT22;10675;47.976;7.824;2023-04-29T10:33:08;18.50;95.90
21033;DHT22;10675;47.976;7.824;2023-04-29T10:35:35;18.60;95.10
21033;DHT22;10675;47.976;7.824;2023-04-29T10:38:07;18.80;95.80
21033;DHT22;10675;47.976;7.824;2023-04-29T10:40:38;18.70;94.70
21033;DHT22;10675;47.976;7.824;2023-04-29T10:43:04;18.90;95.10
21033;DHT22;10675;47.976;7.824;2023-04-29T10:45:31;19.20;93.20
21033;DHT22;10675;47.976;7.824;2023-04-29T10:50:31;19.40;93.50
21033;DHT22;10675;47.976;7.824;2023-04-29T10:52:57;19.10;93.30
21033;DHT22;10675;47.976;7.824;2023-04-29T10:55:25;19.10;93.50
21033;DHT22;10675;47.976;7.824;2023-04-29T10:57:55;18.80;93.80
21033;DHT22;10675;47.976;7.824;2023-04-29T11:00:28;19.00;93.30
21033;DHT22;10675;47.976;7.824;2023-04-29T11:02:54;19.30;93.10
21033;DHT22;10675;47.976;7.824;2023-04-29T11:05:31;19.80;93.10
21033;DHT22;10675;47.976;7.824;2023-04-29T11:08:20;20.10;91.70
21033;DHT22;10675;47.976;7.824;2023-04-29T11:10:52;19.70;92.10
21033;DHT22;10675;47.976;7.824;2023-04-29T11:13:24;19.40;91.00
21033;DHT22;10675;47.976;7.824;2023-04-29T11:15:51;19.30;92.20
21033;DHT22;10675;47.976;7.824;2023-04-29T11:18:17;19.50;90.90
21033;DHT22;10675;47.976;7.824;2023-04-29T11:23:34;20.00;91.80
21033;DHT22;10675;47.976;7.824;2023-04-29T11:26:00;20.00;91.40
21033;DHT22;10675;47.976;7.824;2023-04-29T11:28:30;20.40;91.20
21033;DHT22;10675;47.976;7.824;2023-04-29T11:30:56;19.90;89.80
21033;DHT22;10675;47.976;7.824;2023-04-29T11:33:23;19.90;89.90
21033;DHT22;10675;47.976;7.824;2023-04-29T11:35:49;20.10;90.00
21033;DHT22;10675;47.976;7.824;2023-04-29T11:38:14;19.90;90.90
21033;DHT22;10675;47.976;7.824;2023-04-29T11:40:49;19.90;89.80
21033;DHT22;10675;47.976;7.824;2023-04-29T11:43:19;19.20;90.10
21033;DHT22;10675;47.976;7.824;2023-04-29T11:45:45;19.00;91.00
21033;DHT22;10675;47.976;7.824;2023-04-29T11:48:22;18.70;90.70
21033;DHT22;10675;47.976;7.824;2023-04-29T11:50:51;19.00;91.30
21033;DHT22;10675;47.976;7.824;2023-04-29T11:53:22;19.30;91.50
21033;DHT22;10675;47.976;7.824;2023-04-29T11:55:52;19.80;91.20
21033;DHT22;10675;47.976;7.824;2023-04-29T11:58:19;19.90;90.30
21033;DHT22;10675;47.976;7.824;2023-04-29T12:00:49;20.40;89.80
21033;DHT22;10675;47.976;7.824;2023-04-29T12:03:16;20.30;88.20
21033;DHT22;10675;47.976;7.824;2023-04-29T12:05:52;20.60;88.60
21033;DHT22;10675;47.976;7.824;2023-04-29T12:08:19;20.50;88.60
21033;DHT22;10675;47.976;7.824;2023-04-29T12:10:47;20.50;86.90
21033;DHT22;10675;47.976;7.824;2023-04-29T12:13:13;20.60;86.60
21033;DHT22;10675;47.976;7.824;2023-04-29T12:15:38;20.70;88.30
21033;DHT22;10675;47.976;7.824;2023-04-29T12:18:04;20.80;88.00
21033;DHT22;10675;47.976;7.824;2023-04-29T12:20:30;20.80;87.00
21033;DHT22;10675;47.976;7.824;2023-04-29T12:22:56;19.80;86.30
21033;DHT22;10675;47.976;7.824;2023-04-29T12:25:26;20.20;88.10
21033;DHT22;10675;47.976;7.824;2023-04-29T12:27:58;20.20;85.40
21033;DHT22;10675;47.976;7.824;2023-04-29T12:30:24;20.50;85.50
21033;DHT22;10675;47.976;7.824;2023-04-29T12:32:51;20.10;82.90
21033;DHT22;10675;47.976;7.824;2023-04-29T12:35:17;19.50;85.90
21033;DHT22;10675;47.976;7.824;2023-04-29T12:37:46;19.40;86.20
21033;DHT22;10675;47.976;7.824;2023-04-29T12:40:15;19.50;86.90
21033;DHT22;10675;47.976;7.824;2023-04-29T12:42:41;19.60;86.80
21033;DHT22;10675;47.976;7.824;2023-04-29T12:45:07;19.90;85.80
21033;DHT22;10675;47.976;7.824;2023-04-29T12:47:32;20.50;85.60
21033;DHT22;10675;47.976;7.824;2023-04-29T12:50:01;20.90;84.00
21033;DHT22;10675;47.976;7.824;2023-04-29T12:52:27;21.20;82.30
21033;DHT22;10675;47.976;7.824;2023-04-29T12:54:52;20.70;82.50
21033;DHT22;10675;47.976;7.824;2023-04-29T12:57:18;20.40;81.30
21033;DHT22;10675;47.976;7.824;2023-04-29T12:59:44;20.60;82.40
21033;DHT22;10675;47.976;7.824;2023-04-29T13:02:09;21.20;82.20
21033;DHT22;10675;47.976;7.824;2023-04-29T13:04:35;20.70;82.50
21033;DHT22;10675;47.976;7.824;2023-04-29T13:07:00;21.10;83.10
21033;DHT22;10675;47.976;7.824;2023-04-29T13:09:26;21.60;80.00
21033;DHT22;10675;47.976;7.824;2023-04-29T13:11:52;21.40;78.60
21033;DHT22;10675;47.976;7.824;2023-04-29T13:14:18;21.90;78.00
21033;DHT22;10675;47.976;7.824;2023-04-29T13:16:44;21.70;76.60
21033;DHT22;10675;47.976;7.824;2023-04-29T13:19:10;21.80;77.80
21033;DHT22;10675;47.976;7.824;2023-04-29T13:21:36;21.30;77.60
21033;DHT22;10675;47.976;7.824;2023-04-29T13:24:02;21.20;79.00
21033;DHT22;10675;47.976;7.824;2023-04-29T13:26:36;21.50;77.00
21033;DHT22;10675;47.976;7.824;2023-04-29T13:29:02;21.50;78.00
21033;DHT22;10675;47.976;7.824;2023-04-29T13:31:28;22.10;77.50
21033;DHT22;10675;47.976;7.824;2023-04-29T13:33:54;22.40;75.70
21033;DHT22;10675;47.976;7.824;2023-04-29T13:36:19;21.70;76.90
21033;DHT22;10675;47.976;7.824;2023-04-29T13:38:45;20.90;77.80
21033;DHT22;10675;47.976;7.824;2023-04-29T13:41:10;21.20;78.00
21033;DHT22;10675;47.976;7.824;2023-04-29T13:43:37;20.20;79.30
21033;DHT22;10675;47.976;7.824;2023-04-29T13:46:02;20.10;80.50
21033;DHT22;10675;47.976;7.824;2023-04-29T13:48:28;20.20;79.10
21033;DHT22;10675;47.976;7.824;2023-04-29T13:50:53;20.70;78.10
21033;DHT22;10675;47.976;7.824;2023-04-29T13:53:19;20.80;76.70
21033;DHT22;10675;47.976;7.824;2023-04-29T13:55:45;21.00;76.60
21033;DHT22;10675;47.976;7.824;2023-04-29T13:58:10;20.70;76.40
21033;DHT22;10675;47.976;7.824;2023-04-29T14:00:36;20.90;75.80
21033;DHT22;10675;47.976;7.824;2023-04-29T14:03:03;20.90;77.30
21033;DHT22;10675;47.976;7.824;2023-04-29T14:05:29;20.90;75.20
21033;DHT22;10675;47.976;7.824;2023-04-29T14:07:55;20.30;77.00
21033;DHT22;10675;47.976;7.824;2023-04-29T14:10:21;20.50;78.20
21033;DHT22;10675;47.976;7.824;2023-04-29T14:12:46;21.10;76.10
21033;DHT22;10675;47.976;7.824;2023-04-29T14:15:13;22.00;76.50
21033;DHT22;10675;47.976;7.824;2023-04-29T14:17:39;21.60;74.00
21033;DHT22;10675;47.976;7.824;2023-04-29T14:20:05;22.40;72.30
21033;DHT22;10675;47.976;7.824;2023-04-29T14:22:31;22.10;71.60
21033;DHT22;10675;47.976;7.824;2023-04-29T14:24:56;21.60;71.60
21033;DHT22;10675;47.976;7.824;2023-04-29T14:27:22;20.60;74.50
21033;DHT22;10675;47.976;7.824;2023-04-29T14:29:47;19.60;76.00
21033;DHT22;10675;47.976;7.824;2023-04-29T14:32:13;19.70;78.80
21033;DHT22;10675;47.976;7.824;2023-04-29T14:34:38;19.50;79.20
21033;DHT22;10675;47.976;7.824;2023-04-29T14:37:04;20.00;76.90
21033;DHT22;10675;47.976;7.824;2023-04-29T14:39:29;19.80;79.50
21033;DHT22;10675;47.976;7.824;2023-04-29T14:41:55;20.00;77.50
21033;DHT22;10675;47.976;7.824;2023-04-29T14:44:20;20.10;77.30
21033;DHT22;10675;47.976;7.824;2023-04-29T14:46:46;20.20;77.10
21033;DHT22;10675;47.976;7.824;2023-04-29T14:49:11;20.30;77.50
21033;DHT22;10675;47.976;7.824;2023-04-29T14:51:37;20.30;75.80
21033;DHT22;10675;47.976;7.824;2023-04-29T14:54:03;20.00;75.90
21033;DHT22;10675;47.976;7.824;2023-04-29T14:56:28;19.60;76.70
21033;DHT22;10675;47.976;7.824;2023-04-29T14:58:54;19.50;78.50
21033;DHT22;10675;47.976;7.824;2023-04-29T15:01:20;19.70;77.70
21033;DHT22;10675;47.976;7.824;2023-04-29T15:03:45;19.80;76.10
21033;DHT22;10675;47.976;7.824;2023-04-29T15:06:11;19.50;76.20
21033;DHT22;10675;47.976;7.824;2023-04-29T15:08:37;18.40;78.20
21033;DHT22;10675;47.976;7.824;2023-04-29T15:11:02;18.90;78.80
21033;DHT22;10675;47.976;7.824;2023-04-29T15:13:28;18.70;80.00
21033;DHT22;10675;47.976;7.824;2023-04-29T15:15:53;19.20;77.40
21033;DHT22;10675;47.976;7.824;2023-04-29T15:18:19;19.50;77.90
21033;DHT22;10675;47.976;7.824;2023-04-29T15:20:47;19.60;78.50
21033;DHT22;10675;47.976;7.824;2023-04-29T15:23:13;19.90;77.20
21033;DHT22;10675;47.976;7.824;2023-04-29T15:25:38;19.60;76.80
21033;DHT22;10675;47.976;7.824;2023-04-29T15:28:04;19.50;76.50
21033;DHT22;10675;47.976;7.824;2023-04-29T15:30:30;19.50;76.40
21033;DHT22;10675;47.976;7.824;2023-04-29T15:32:55;19.30;77.30
21033;DHT22;10675;47.976;7.824;2023-04-29T15:35:21;19.30;76.80
21033;DHT22;10675;47.976;7.824;2023-04-29T15:37:47;19.70;75.90
21033;DHT22;10675;47.976;7.824;2023-04-29T15:40:12;19.60;76.20
21033;DHT22;10675;47.976;7.824;2023-04-29T15:42:38;19.50;77.40
21033;DHT22;10675;47.976;7.824;2023-04-29T15:45:04;19.70;76.50
21033;DHT22;10675;47.976;7.824;2023-04-29T15:47:33;19.40;77.30